createdAt,value
2022-12-23T00:00:39.188Z,84.38
2022-12-23T00:03:06.909Z,77.38
2022-12-23T00:05:38.774Z,67.18
2022-12-23T00:08:07.051Z,74.93
2022-12-23T00:10:35.239Z,78.68
2022-12-23T00:13:20.759Z,88.68
2022-12-23T00:15:47.694Z,82.05
2022-12-23T00:18:15.176Z,90.57
2022-12-23T00:20:42.218Z,78.05
2022-12-23T00:23:09.139Z,73.63
2022-12-23T00:25:41.874Z,85.18
2022-12-23T00:28:12.143Z,90.97
2022-12-23T00:31:07.022Z,100.85
2022-12-23T00:36:16.998Z,90.25
2022-12-23T00:39:02.497Z,85.75
2022-12-23T00:41:48.232Z,103.82
2022-12-23T00:44:15.588Z,103.28
2022-12-23T00:46:42.636Z,87.13
2022-12-23T00:49:31.247Z,95.05
2022-12-23T00:51:58.913Z,120.80
2022-12-23T00:54:26.308Z,120.97
2022-12-23T00:56:53.311Z,86.63
2022-12-23T00:59:20.540Z,91.55
2022-12-23T01:02:06.110Z,89.85
2022-12-23T01:04:51.749Z,86.38
2022-12-23T01:07:18.643Z,107.93
2022-12-23T01:09:45.687Z,92.70
2022-12-23T01:12:13.348Z,87.85
2022-12-23T01:14:40.488Z,88.57
2022-12-23T01:17:08.581Z,97.65
2022-12-23T01:19:36.260Z,93.65
2022-12-23T01:22:03.385Z,104.68
2022-12-23T01:24:31.429Z,95.18
2022-12-23T01:26:58.535Z,87.82
2022-12-23T01:29:25.966Z,95.75
2022-12-23T01:31:53.199Z,83.72
2022-12-23T01:34:20.266Z,89.22
2022-12-23T01:36:47.275Z,102.80
2022-12-23T01:39:14.206Z,85.75
2022-12-23T01:41:59.585Z,89.40
2022-12-23T01:44:53.779Z,79.78
2022-12-23T01:47:23.482Z,95.47
2022-12-23T01:49:52.802Z,123.85
2022-12-23T01:52:20.139Z,98.30
2022-12-23T01:54:48.055Z,110.60
2022-12-23T01:57:14.984Z,92.53
2022-12-23T02:00:01.993Z,94.88
2022-12-23T02:02:49.061Z,88.65
2022-12-23T02:05:16.964Z,87.80
2022-12-23T02:08:02.783Z,82.75
2022-12-23T02:10:38.227Z,78.28
2022-12-23T02:13:30.522Z,66.78
2022-12-23T02:16:18.899Z,71.10
2022-12-23T02:19:17.812Z,77.68
2022-12-23T02:22:15.142Z,63.58
2022-12-23T02:25:17.469Z,65.65
2022-12-23T02:28:18.159Z,72.85
2022-12-23T02:31:09.735Z,75.60
2022-12-23T02:34:09.562Z,81.57
2022-12-23T02:37:05.383Z,83.43
2022-12-23T02:39:42.595Z,74.38
2022-12-23T02:42:21.563Z,76.32
2022-12-23T02:45:23.456Z,92.95
2022-12-23T02:47:56.239Z,82.65
2022-12-23T02:50:34.332Z,80.50
2022-12-23T02:53:10.048Z,98.57
2022-12-23T02:55:40.280Z,83.60
2022-12-23T02:58:13.536Z,85.70
2022-12-23T03:00:43.382Z,103.15
2022-12-23T03:03:10.477Z,100.53
2022-12-23T03:05:42.107Z,92.28
2022-12-23T03:08:34.682Z,110.55
2022-12-23T03:11:13.549Z,106.30
2022-12-23T03:14:07.994Z,89.55
2022-12-23T03:16:46.966Z,92.65
2022-12-23T03:19:34.522Z,87.10
2022-12-23T03:22:21.648Z,100.65
2022-12-23T03:25:08.435Z,97.78
2022-12-23T03:27:44.306Z,106.22
2022-12-23T03:30:15.004Z,98.80
2022-12-23T03:33:02.047Z,94.95
2022-12-23T03:35:35.158Z,84.47
2022-12-23T03:38:03.862Z,93.63
2022-12-23T03:40:42.955Z,90.75
2022-12-23T03:43:16.868Z,105.50
2022-12-23T03:45:48.534Z,94.40
2022-12-23T03:48:28.775Z,89.57
2022-12-23T03:51:04.427Z,80.50
2022-12-23T03:53:36.884Z,95.07
2022-12-23T03:56:19.099Z,78.32
2022-12-23T03:58:53.803Z,84.50
2022-12-23T04:01:35.291Z,85.28
2022-12-23T04:04:09.443Z,72.55
2022-12-23T04:09:08.007Z,90.43
2022-12-23T04:11:36.578Z,92.18
2022-12-23T04:14:03.652Z,89.25
2022-12-23T04:16:30.755Z,102.15
2022-12-23T04:18:57.811Z,92.50
2022-12-23T04:21:24.808Z,102.95
2022-12-23T04:23:51.760Z,98.20
2022-12-23T04:26:18.744Z,103.25
2022-12-23T04:28:45.636Z,103.85
2022-12-23T04:31:12.595Z,88.53
2022-12-23T04:33:39.507Z,95.00
2022-12-23T04:36:06.521Z,89.70
2022-12-23T04:38:33.450Z,92.70
2022-12-23T04:41:00.406Z,88.32
2022-12-23T04:43:27.343Z,94.40
2022-12-23T04:45:54.334Z,93.78
2022-12-23T04:48:21.333Z,87.50
2022-12-23T04:50:48.282Z,86.90
2022-12-23T04:53:15.338Z,76.88
2022-12-23T04:55:42.375Z,66.78
2022-12-23T04:58:09.388Z,85.60
2022-12-23T05:00:39.811Z,65.65
2022-12-23T05:03:07.438Z,71.03
2022-12-23T05:05:34.633Z,66.72
2022-12-23T05:08:05.958Z,87.43
2022-12-23T05:10:32.968Z,119.47
2022-12-23T05:13:00.014Z,94.43
2022-12-23T05:15:26.910Z,113.88
2022-12-23T05:17:53.834Z,103.85
2022-12-23T05:20:20.777Z,113.40
2022-12-23T05:22:47.671Z,103.68
2022-12-23T05:25:14.671Z,133.10
2022-12-23T05:27:41.534Z,119.60
2022-12-23T05:30:09.373Z,103.10
2022-12-23T05:32:36.279Z,101.30
2022-12-23T05:35:03.334Z,106.78
2022-12-23T05:37:30.278Z,93.05
2022-12-23T05:39:57.219Z,89.93
2022-12-23T05:42:24.448Z,104.10
2022-12-23T05:44:51.364Z,96.90
2022-12-23T05:47:18.296Z,109.32
2022-12-23T05:49:45.147Z,117.07
2022-12-23T05:52:12.139Z,105.20
2022-12-23T05:54:39.046Z,110.45
2022-12-23T05:57:05.984Z,109.95
2022-12-23T05:59:32.968Z,122.63
2022-12-23T06:02:00.123Z,103.78
2022-12-23T06:04:27.555Z,104.50
2022-12-23T06:06:54.471Z,90.00
2022-12-23T06:09:21.466Z,100.10
2022-12-23T06:11:48.566Z,117.25
2022-12-23T06:14:15.515Z,101.40
2022-12-23T06:16:42.828Z,86.60
2022-12-23T06:19:09.923Z,92.68
2022-12-23T06:21:36.916Z,83.45
2022-12-23T06:24:04.428Z,92.60
2022-12-23T06:26:31.429Z,71.57
2022-12-23T06:28:58.393Z,77.55
2022-12-23T06:31:25.436Z,93.20
2022-12-23T06:33:52.323Z,90.65
2022-12-23T06:36:19.715Z,89.78
2022-12-23T06:38:46.668Z,94.15
2022-12-23T06:41:14.042Z,98.45
2022-12-23T06:43:40.947Z,103.57
2022-12-23T06:46:08.010Z,92.18
2022-12-23T06:48:35.056Z,88.78
2022-12-23T06:51:02.025Z,101.70
2022-12-23T06:53:29.006Z,90.55
2022-12-23T06:56:03.625Z,91.28
2022-12-23T06:58:30.967Z,103.90
2022-12-23T07:00:58.051Z,84.90
2022-12-23T07:03:25.169Z,91.30
2022-12-23T07:05:52.638Z,90.88
2022-12-23T07:08:19.984Z,89.03
2022-12-23T07:10:47.109Z,83.35
2022-12-23T07:13:14.184Z,75.65
2022-12-23T07:15:41.122Z,73.35
2022-12-23T07:18:08.169Z,87.47
2022-12-23T07:20:35.150Z,92.63
2022-12-23T07:23:02.241Z,92.55
2022-12-23T07:25:29.299Z,80.45
2022-12-23T07:27:56.528Z,91.75
2022-12-23T07:30:24.084Z,74.57
2022-12-23T07:32:51.514Z,79.72
2022-12-23T07:35:18.801Z,82.10
2022-12-23T07:37:45.867Z,88.63
2022-12-23T07:40:13.027Z,105.18
2022-12-23T07:42:45.631Z,84.80
2022-12-23T07:45:13.077Z,76.55
2022-12-23T07:47:40.032Z,86.40
2022-12-23T07:50:07.718Z,75.32
2022-12-23T07:52:34.729Z,71.90
2022-12-23T07:55:01.688Z,67.57
2022-12-23T07:57:29.414Z,70.22
2022-12-23T07:59:57.183Z,59.28
2022-12-23T08:02:25.285Z,62.08
2022-12-23T08:04:52.593Z,60.60
2022-12-23T08:07:19.626Z,69.63
2022-12-23T08:09:46.553Z,66.50
2022-12-23T08:12:13.649Z,58.47
2022-12-23T08:14:40.607Z,65.70
2022-12-23T08:17:07.799Z,53.45
2022-12-23T08:19:34.881Z,54.65
2022-12-23T08:22:02.064Z,62.92
2022-12-23T08:24:29.318Z,56.25
2022-12-23T08:26:57.228Z,53.85
2022-12-23T08:29:24.734Z,56.15
2022-12-23T08:31:51.780Z,53.25
2022-12-23T08:34:19.434Z,49.58
2022-12-23T08:36:46.318Z,55.10
2022-12-23T08:39:14.128Z,49.38
2022-12-23T08:41:44.593Z,61.05
2022-12-23T08:44:15.155Z,57.20
2022-12-23T08:46:42.985Z,58.50
2022-12-23T08:49:10.927Z,46.90
2022-12-23T08:51:38.684Z,60.47
2022-12-23T08:54:06.450Z,49.05
2022-12-23T08:56:36.819Z,49.47
2022-12-23T08:59:04.272Z,56.55
2022-12-23T09:01:33.812Z,57.22
2022-12-23T09:04:05.383Z,52.92
2022-12-23T09:06:40.770Z,56.67
2022-12-23T09:09:10.043Z,53.92
2022-12-23T09:11:37.666Z,49.90
2022-12-23T09:14:05.700Z,47.75
2022-12-23T09:16:32.976Z,59.00
2022-12-23T09:18:59.976Z,53.42
2022-12-23T09:21:27.026Z,54.25
2022-12-23T09:23:54.003Z,61.35
2022-12-23T09:26:27.659Z,60.67
2022-12-23T09:28:55.857Z,61.28
2022-12-23T09:31:23.731Z,47.40
2022-12-23T09:33:52.993Z,56.10
2022-12-23T09:36:20.839Z,42.45
2022-12-23T09:38:48.178Z,60.00
2022-12-23T09:41:40.472Z,48.20
2022-12-23T09:44:28.909Z,56.92
2022-12-23T09:47:00.427Z,46.53
2022-12-23T09:49:29.214Z,45.40
2022-12-23T09:52:05.211Z,73.40
2022-12-23T09:54:46.141Z,104.30
2022-12-23T09:57:26.965Z,67.55
2022-12-23T10:00:10.326Z,27.85
2022-12-23T10:03:01.548Z,75.43
2022-12-23T10:05:59.291Z,83.45
2022-12-23T10:08:39.539Z,76.78
2022-12-23T10:11:26.657Z,83.30
2022-12-23T10:14:07.373Z,91.85
2022-12-23T10:16:45.974Z,87.55
2022-12-23T10:19:23.608Z,93.30
2022-12-23T10:22:27.503Z,179.40
2022-12-23T10:24:57.829Z,232.50
2022-12-23T10:27:42.390Z,172.35
2022-12-23T10:34:05.184Z,128.00
2022-12-23T10:36:45.654Z,76.55
2022-12-23T10:39:17.829Z,34.58
2022-12-23T10:42:07.550Z,54.40
2022-12-23T10:44:37.517Z,36.70
2022-12-23T10:47:25.057Z,39.40
2022-12-23T10:50:08.179Z,82.45
2022-12-23T10:52:39.335Z,51.25
2022-12-23T10:55:06.769Z,62.60
2022-12-23T10:57:35.431Z,43.45
2022-12-23T11:00:18.504Z,30.08
2022-12-23T11:02:55.045Z,48.83
2022-12-23T11:05:27.605Z,39.35
2022-12-23T11:07:58.791Z,40.45
2022-12-23T11:10:33.081Z,47.92
2022-12-23T11:13:03.532Z,35.97
2022-12-23T11:15:41.561Z,28.88
2022-12-23T11:18:14.777Z,27.13
2022-12-23T11:20:44.476Z,29.75
2022-12-23T11:23:33.693Z,34.95
2022-12-23T11:26:07.442Z,36.95
2022-12-23T11:28:38.846Z,32.50
2022-12-23T11:31:09.880Z,23.98
2022-12-23T11:33:41.082Z,23.85
2022-12-23T11:36:14.418Z,34.80
2022-12-23T11:38:54.701Z,27.45
2022-12-23T11:41:26.809Z,23.80
2022-12-23T11:44:02.396Z,23.10
2022-12-23T11:46:31.978Z,25.50
2022-12-23T11:49:26.524Z,25.83
2022-12-23T11:52:03.010Z,20.00
2022-12-23T11:54:31.344Z,25.52
2022-12-23T11:57:00.261Z,23.90
2022-12-23T11:59:43.357Z,26.13
2022-12-23T12:02:21.185Z,27.38
2022-12-23T12:05:04.832Z,25.17
2022-12-23T12:07:36.072Z,35.65
2022-12-23T12:10:04.905Z,30.80
2022-12-23T12:12:33.300Z,35.95
2022-12-23T12:15:00.638Z,32.45
2022-12-23T12:17:37.306Z,28.92
2022-12-23T12:20:22.946Z,34.42
2022-12-23T12:23:02.278Z,40.97
2022-12-23T12:26:14.230Z,38.72
2022-12-23T12:28:47.751Z,52.22
2022-12-23T12:31:26.105Z,44.40
2022-12-23T12:33:55.025Z,50.33
2022-12-23T12:36:46.448Z,42.25
2022-12-23T12:39:19.731Z,54.10
2022-12-23T12:42:14.096Z,46.45
2022-12-23T12:44:49.476Z,51.95
2022-12-23T12:47:53.196Z,56.70
2022-12-23T12:50:31.276Z,39.40
2022-12-23T12:53:09.118Z,41.47
2022-12-23T12:55:42.297Z,44.13
2022-12-23T12:58:20.444Z,37.70
2022-12-23T13:01:02.310Z,45.65
2022-12-23T13:04:07.600Z,45.97
2022-12-23T13:07:08.867Z,39.90
2022-12-23T13:09:54.537Z,41.25
2022-12-23T13:12:36.417Z,54.78
2022-12-23T13:15:21.152Z,57.45
2022-12-23T13:18:08.548Z,56.92
2022-12-23T13:21:09.626Z,44.10
2022-12-23T13:23:48.419Z,37.47
2022-12-23T13:26:22.520Z,50.38
2022-12-23T13:31:40.938Z,48.83
2022-12-23T13:34:35.234Z,56.92
2022-12-23T13:37:09.378Z,51.13
2022-12-23T13:42:06.435Z,54.92
2022-12-23T13:44:34.555Z,57.03
2022-12-23T13:47:20.019Z,49.08
2022-12-23T13:50:04.505Z,54.42
2022-12-23T13:53:09.072Z,57.33
2022-12-23T13:55:51.470Z,50.53
2022-12-23T13:58:31.285Z,50.08
2022-12-23T14:01:08.370Z,46.13
2022-12-23T14:03:40.091Z,57.88
2022-12-23T14:06:25.468Z,54.90
2022-12-23T14:08:55.178Z,51.55
2022-12-23T14:11:26.535Z,50.58
2022-12-23T14:14:01.367Z,64.05
2022-12-23T14:16:42.167Z,57.03
2022-12-23T14:19:36.055Z,58.35
2022-12-23T14:22:35.319Z,53.95
2022-12-23T14:25:40.028Z,60.28
2022-12-23T14:28:41.606Z,55.70
2022-12-23T14:31:38.069Z,48.75
2022-12-23T14:34:32.286Z,64.25
2022-12-23T14:37:21.302Z,51.67
2022-12-23T14:39:49.439Z,51.83
2022-12-23T14:42:34.139Z,49.13
2022-12-23T14:45:36.818Z,51.53
2022-12-23T14:48:35.915Z,36.85
2022-12-23T14:51:21.903Z,38.20
2022-12-23T14:53:55.494Z,32.15
2022-12-23T14:56:54.799Z,34.65
2022-12-23T14:59:37.672Z,30.67
2022-12-23T15:02:18.026Z,36.47
2022-12-23T15:04:46.572Z,28.92
2022-12-23T15:07:21.818Z,34.58
2022-12-23T15:10:00.787Z,34.08
2022-12-23T15:12:36.031Z,34.85
2022-12-23T15:15:23.286Z,30.88
2022-12-23T15:18:04.983Z,28.48
2022-12-23T15:20:33.088Z,33.20
2022-12-23T15:23:01.647Z,35.38
2022-12-23T15:25:40.822Z,30.10
2022-12-23T15:28:18.687Z,37.15
2022-12-23T15:30:55.040Z,46.38
2022-12-23T15:36:12.337Z,42.00
2022-12-23T15:38:39.846Z,32.05
2022-12-23T15:41:15.393Z,34.33
2022-12-23T15:43:42.988Z,32.10
2022-12-23T15:46:26.983Z,33.53
2022-12-23T15:48:57.040Z,42.92
2022-12-23T15:52:05.058Z,36.38
2022-12-23T15:54:21.660Z,44.10
2022-12-23T15:56:51.921Z,43.67
2022-12-23T15:59:33.447Z,48.55
2022-12-23T16:02:40.348Z,46.72
2022-12-23T16:05:05.832Z,50.83
2022-12-23T16:07:37.050Z,48.75
2022-12-23T16:10:13.349Z,49.60
2022-12-23T16:12:41.286Z,51.03
2022-12-23T16:15:22.303Z,50.40
2022-12-23T16:17:49.230Z,56.85
2022-12-23T16:20:16.029Z,59.25
2022-12-23T16:22:44.778Z,58.92
2022-12-23T16:25:24.652Z,56.13
2022-12-23T16:28:09.131Z,53.35
2022-12-23T16:33:07.732Z,69.45
2022-12-23T16:35:40.670Z,61.70
2022-12-23T16:38:14.055Z,51.17
2022-12-23T16:40:41.921Z,59.97
2022-12-23T16:43:09.190Z,49.97
2022-12-23T16:45:37.120Z,56.15
2022-12-23T16:48:20.974Z,63.60
2022-12-23T16:50:49.270Z,61.42
2022-12-23T16:53:16.511Z,58.50
2022-12-23T16:55:51.177Z,55.13
2022-12-23T16:58:22.332Z,58.45
2022-12-23T17:00:49.472Z,52.83
2022-12-23T17:03:19.158Z,53.63
2022-12-23T17:05:47.851Z,73.60
2022-12-23T17:08:15.325Z,54.70
2022-12-23T17:10:44.578Z,44.38
2022-12-23T17:13:17.757Z,49.85
2022-12-23T17:15:45.560Z,50.65
2022-12-23T17:18:14.568Z,52.88
2022-12-23T17:20:43.405Z,45.95
2022-12-23T17:23:23.939Z,42.22
2022-12-23T17:25:52.328Z,43.38
2022-12-23T17:28:22.481Z,50.15
2022-12-23T17:30:55.209Z,45.45
2022-12-23T17:33:24.776Z,44.28
2022-12-23T17:35:53.898Z,38.45
2022-12-23T17:38:21.551Z,35.70
2022-12-23T17:40:49.283Z,36.10
2022-12-23T17:43:17.537Z,42.60
2022-12-23T17:45:45.748Z,39.58
2022-12-23T17:48:19.766Z,37.08
2022-12-23T17:50:48.697Z,41.33
2022-12-23T17:53:18.967Z,49.47
2022-12-23T17:55:46.330Z,43.30
2022-12-23T17:58:14.260Z,46.25
2022-12-23T18:00:41.421Z,41.70
2022-12-23T18:03:22.797Z,47.35
2022-12-23T18:05:54.277Z,44.63
2022-12-23T18:08:26.159Z,34.47
2022-12-23T18:10:53.178Z,44.58
2022-12-23T18:13:20.691Z,37.65
2022-12-23T18:15:47.861Z,39.60
2022-12-23T18:18:32.115Z,32.85
2022-12-23T18:21:02.442Z,32.05
2022-12-23T18:23:31.593Z,39.17
2022-12-23T18:25:58.969Z,34.75
2022-12-23T18:28:26.658Z,46.20
2022-12-23T18:30:56.291Z,49.65
2022-12-23T18:33:24.259Z,49.17
2022-12-23T18:35:51.515Z,43.35
2022-12-23T18:38:18.679Z,45.08
2022-12-23T18:40:45.810Z,44.42
2022-12-23T18:43:24.746Z,49.40
2022-12-23T18:45:53.839Z,46.58
2022-12-23T18:48:21.777Z,46.95
2022-12-23T18:50:48.824Z,44.13
2022-12-23T18:53:23.711Z,45.83
2022-12-23T18:55:53.059Z,52.65
2022-12-23T18:58:20.603Z,56.10
2022-12-23T19:00:49.079Z,47.95
2022-12-23T19:03:25.866Z,50.70
2022-12-23T19:05:54.043Z,46.00
2022-12-23T19:08:27.079Z,45.47
2022-12-23T19:10:55.586Z,52.40
2022-12-23T19:13:22.763Z,39.28
2022-12-23T19:15:50.319Z,44.88
2022-12-23T19:18:19.738Z,42.05
2022-12-23T19:20:47.743Z,42.38
2022-12-23T19:23:15.775Z,47.67
2022-12-23T19:25:50.726Z,48.60
2022-12-23T19:28:21.786Z,39.60
2022-12-23T19:30:49.242Z,42.17
2022-12-23T19:33:16.334Z,41.90
2022-12-23T19:35:46.239Z,44.42
2022-12-23T19:38:13.179Z,41.45
2022-12-23T19:40:40.490Z,42.20
2022-12-23T19:43:07.417Z,37.80
2022-12-23T19:45:34.342Z,39.78
2022-12-23T19:48:01.188Z,38.60
2022-12-23T19:50:28.261Z,43.05
2022-12-23T19:52:56.567Z,45.33
2022-12-23T19:55:24.125Z,42.35
2022-12-23T19:57:52.212Z,44.03
2022-12-23T20:00:19.207Z,40.58
2022-12-23T20:02:46.265Z,37.67
2022-12-23T20:05:13.151Z,44.92
2022-12-23T20:07:40.103Z,52.95
2022-12-23T20:10:07.705Z,45.72
2022-12-23T20:12:34.670Z,40.88
2022-12-23T20:15:01.664Z,48.90
2022-12-23T20:17:28.616Z,45.30
2022-12-23T20:19:55.536Z,44.45
2022-12-23T20:22:22.459Z,47.75
2022-12-23T20:24:49.844Z,40.38
2022-12-23T20:27:19.135Z,48.13
2022-12-23T20:29:49.688Z,46.80
2022-12-23T20:32:16.621Z,40.30
2022-12-23T20:34:43.536Z,40.83
2022-12-23T20:37:11.737Z,38.47
2022-12-23T20:39:38.713Z,41.75
2022-12-23T20:42:05.622Z,43.60
2022-12-23T20:44:34.884Z,45.67
2022-12-23T20:47:03.193Z,41.03
2022-12-23T20:49:30.244Z,44.03
2022-12-23T20:51:57.144Z,44.28
2022-12-23T20:54:31.567Z,41.55
2022-12-23T20:57:00.173Z,41.33
2022-12-23T20:59:27.073Z,40.72
2022-12-23T21:01:54.152Z,43.72
2022-12-23T21:04:22.563Z,43.25
2022-12-23T21:06:49.842Z,41.78
2022-12-23T21:09:17.056Z,38.47
2022-12-23T21:11:45.958Z,47.15
2022-12-23T21:14:13.908Z,42.47
2022-12-23T21:16:41.563Z,50.88
2022-12-23T21:19:13.813Z,42.55
2022-12-23T21:21:40.670Z,39.78
2022-12-23T21:24:07.886Z,36.88
2022-12-23T21:26:35.168Z,43.45
2022-12-23T21:29:04.356Z,47.38
2022-12-23T21:31:33.906Z,45.75
2022-12-23T21:34:01.552Z,40.83
2022-12-23T21:36:31.300Z,40.72
2022-12-23T21:38:59.099Z,39.92
2022-12-23T21:41:29.175Z,43.75
2022-12-23T21:43:57.384Z,44.05
2022-12-23T21:46:25.486Z,36.20
2022-12-23T21:48:52.710Z,40.55
2022-12-23T21:51:22.801Z,32.28
2022-12-23T21:53:52.379Z,47.40
2022-12-23T21:56:26.096Z,43.38
2022-12-23T21:58:57.998Z,40.40
2022-12-23T22:01:25.679Z,39.33
2022-12-23T22:03:53.323Z,40.42
2022-12-23T22:06:28.743Z,43.13
2022-12-23T22:08:56.529Z,46.35
2022-12-23T22:11:29.840Z,38.97
2022-12-23T22:13:58.830Z,46.08
2022-12-23T22:16:27.513Z,39.45
2022-12-23T22:18:56.331Z,39.15
2022-12-23T22:21:25.392Z,43.17
2022-12-23T22:23:54.639Z,42.20
2022-12-23T22:26:25.794Z,34.67
2022-12-23T22:28:57.449Z,40.95
2022-12-23T22:31:38.163Z,40.30
2022-12-23T22:34:06.209Z,37.80
2022-12-23T22:36:34.039Z,50.40
2022-12-23T22:39:02.046Z,38.78
2022-12-23T22:41:30.378Z,46.58
2022-12-23T22:43:58.562Z,37.78
2022-12-23T22:46:26.264Z,39.10
2022-12-23T22:48:53.602Z,41.72
2022-12-23T22:51:29.088Z,32.90
2022-12-23T22:53:56.623Z,48.90
2022-12-23T22:56:25.319Z,49.60
2022-12-23T22:58:53.088Z,49.08
2022-12-23T23:01:27.738Z,44.90
2022-12-23T23:03:57.528Z,63.45
2022-12-23T23:06:30.584Z,48.35
2022-12-23T23:08:58.084Z,47.97
2022-12-23T23:11:26.289Z,37.72
2022-12-23T23:13:53.999Z,39.20
2022-12-23T23:16:21.145Z,40.63
2022-12-23T23:18:48.261Z,37.70
2022-12-23T23:21:15.973Z,41.13
2022-12-23T23:23:42.974Z,42.08
2022-12-23T23:26:10.634Z,37.03
2022-12-23T23:28:41.106Z,39.78
2022-12-23T23:31:40.503Z,40.15
2022-12-23T23:33:57.785Z,38.95
2022-12-23T23:36:25.124Z,39.58
2022-12-23T23:38:52.160Z,44.10
2022-12-23T23:41:23.221Z,41.15
2022-12-23T23:43:51.612Z,42.85
2022-12-23T23:46:19.051Z,44.15
2022-12-23T23:48:46.072Z,38.65
2022-12-23T23:51:13.006Z,44.03
2022-12-23T23:53:40.390Z,38.60
2022-12-23T23:56:08.564Z,35.63
2022-12-23T23:58:36.671Z,35.90
